LPE0021 SPJC-SPZO
Flight info
| Callsign | LPE0021 |
|---|---|
| Flight time | 2h 9m |
| Altitude | 37000 |
| Route | PAKOL UM668 POVLO DCT DARKI |
| Aircraft | A20N/M-SDE2E3FGHIRWXY/LB1 |
Departure
| Time | 2026-04-29 00:51 |
|---|---|
| Airport | Jorge Chávez International Airport (SPJC) |
Arrival
| Time | 2026-04-29 03:01 |
|---|---|
| Airport | Alejandro Velasco Astete International Airport (SPZO) |
| Time | Latitude | Longitude | Altitude | Speed | Heading |
|---|---|---|---|---|---|
| 2026-04-29 00:21 | -12.02448 | -77.10867 | 126 ft | 0 kts | 64° |
| 2026-04-29 00:37 | -12.02451 | -77.10873 | 126 ft | 2 kts | 64° |
| 2026-04-29 00:37 | -12.02460 | -77.10891 | 126 ft | 3 kts | 64° |
| 2026-04-29 00:37 | -12.02473 | -77.10920 | 126 ft | 5 kts | 64° |
| 2026-04-29 00:37 | -12.02492 | -77.10954 | 126 ft | 5 kts | 44° |
| 2026-04-29 00:38 | -12.02527 | -77.10963 | 126 ft | 5 kts | 324° |
| 2026-04-29 00:38 | -12.02531 | -77.10959 | 126 ft | 0 kts | 324° |
| 2026-04-29 00:40 | -12.02528 | -77.10962 | 126 ft | 1 kts | 322° |
| 2026-04-29 00:40 | -12.02518 | -77.10975 | 126 ft | 3 kts | 302° |
| 2026-04-29 00:40 | -12.02505 | -77.10998 | 126 ft | 4 kts | 299° |
| 2026-04-29 00:41 | -12.02487 | -77.11031 | 126 ft | 5 kts | 299° |
| 2026-04-29 00:41 | -12.02472 | -77.11057 | 126 ft | 6 kts | 299° |
| 2026-04-29 00:41 | -12.02424 | -77.11105 | 126 ft | 8 kts | 332° |
| 2026-04-29 00:41 | -12.02368 | -77.11133 | 126 ft | 9 kts | 335° |
| 2026-04-29 00:42 | -12.02302 | -77.11164 | 126 ft | 10 kts | 334° |
| 2026-04-29 00:42 | -12.02230 | -77.11199 | 126 ft | 12 kts | 334° |
| 2026-04-29 00:42 | -12.02150 | -77.11239 | 126 ft | 13 kts | 334° |
| 2026-04-29 00:42 | -12.02066 | -77.11281 | 126 ft | 14 kts | 334° |
| 2026-04-29 00:43 | -12.01975 | -77.11326 | 126 ft | 14 kts | 334° |
| 2026-04-29 00:43 | -12.01879 | -77.11373 | 126 ft | 15 kts | 334° |
| 2026-04-29 00:43 | -12.01780 | -77.11423 | 126 ft | 16 kts | 334° |
| 2026-04-29 00:43 | -12.01677 | -77.11473 | 126 ft | 16 kts | 334° |
| 2026-04-29 00:44 | -12.01571 | -77.11525 | 126 ft | 17 kts | 334° |
| 2026-04-29 00:44 | -12.01463 | -77.11579 | 126 ft | 17 kts | 334° |
| 2026-04-29 00:44 | -12.01352 | -77.11633 | 126 ft | 17 kts | 335° |
| 2026-04-29 00:44 | -12.01239 | -77.11688 | 126 ft | 18 kts | 334° |
| 2026-04-29 00:45 | -12.01124 | -77.11746 | 126 ft | 18 kts | 334° |
| 2026-04-29 00:45 | -12.01008 | -77.11803 | 126 ft | 18 kts | 334° |
| 2026-04-29 00:45 | -12.00893 | -77.11859 | 126 ft | 15 kts | 334° |
| 2026-04-29 00:45 | -12.00794 | -77.11907 | 126 ft | 15 kts | 334° |
| 2026-04-29 00:46 | -12.00736 | -77.11936 | 126 ft | 0 kts | 334° |
| 2026-04-29 00:46 | -12.00732 | -77.11938 | 126 ft | 1 kts | 334° |
| 2026-04-29 00:47 | -12.00719 | -77.11945 | 126 ft | 3 kts | 331° |
| 2026-04-29 00:47 | -12.00696 | -77.11961 | 126 ft | 4 kts | 321° |
| 2026-04-29 00:47 | -12.00678 | -77.11992 | 126 ft | 5 kts | 274° |
| 2026-04-29 00:47 | -12.00685 | -77.12011 | 126 ft | 1 kts | 239° |
| 2026-04-29 00:48 | -12.00693 | -77.12026 | 126 ft | 2 kts | 245° |
| 2026-04-29 00:48 | -12.00702 | -77.12050 | 126 ft | 4 kts | 250° |
| 2026-04-29 00:48 | -12.00714 | -77.12080 | 126 ft | 5 kts | 246° |
| 2026-04-29 00:48 | -12.00746 | -77.12102 | 126 ft | 6 kts | 190° |
| 2026-04-29 00:49 | -12.00792 | -77.12111 | 126 ft | 6 kts | 191° |
| 2026-04-29 00:49 | -12.00808 | -77.12109 | 126 ft | 0 kts | 163° |
| 2026-04-29 00:50 | -12.00809 | -77.12109 | 126 ft | 0 kts | 163° |
| 2026-04-29 00:50 | -12.00814 | -77.12107 | 126 ft | 4 kts | 161° |
| 2026-04-29 00:50 | -12.01132 | -77.11955 | 126 ft | 92 kts | 154° |
| 2026-04-29 00:51 | -12.01928 | -77.11568 | 130 ft | 159 kts | 157° |
| 2026-04-29 00:51 | -12.02970 | -77.11046 | 701 ft | 172 kts | 154° |
| 2026-04-29 00:51 | -12.04051 | -77.10525 | 1494 ft | 171 kts | 154° |
| 2026-04-29 00:51 | -12.05127 | -77.09999 | 2171 ft | 180 kts | 153° |
| 2026-04-29 00:52 | -12.06303 | -77.09416 | 2736 ft | 198 kts | 152° |
| 2026-04-29 00:52 | -12.07584 | -77.08778 | 3328 ft | 215 kts | 153° |
| 2026-04-29 00:52 | -12.08994 | -77.08078 | 3937 ft | 234 kts | 153° |
| 2026-04-29 00:52 | -12.10513 | -77.07325 | 4540 ft | 252 kts | 153° |
| 2026-04-29 00:53 | -12.12148 | -77.06516 | 5160 ft | 269 kts | 153° |
| 2026-04-29 00:53 | -12.13865 | -77.05669 | 5693 ft | 275 kts | 153° |
| 2026-04-29 00:53 | -12.15589 | -77.04817 | 5946 ft | 277 kts | 153° |
| 2026-04-29 00:53 | -12.17374 | -77.03937 | 6171 ft | 286 kts | 153° |
| 2026-04-29 00:54 | -12.19151 | -77.03059 | 7019 ft | 287 kts | 153° |
| 2026-04-29 00:54 | -12.20946 | -77.02174 | 7899 ft | 288 kts | 153° |
| 2026-04-29 00:54 | -12.22749 | -77.01269 | 8508 ft | 290 kts | 149° |
| 2026-04-29 00:54 | -12.24329 | -76.99995 | 8870 ft | 291 kts | 129° |
| 2026-04-29 00:55 | -12.25410 | -76.98228 | 9444 ft | 296 kts | 115° |
| 2026-04-29 00:55 | -12.26302 | -76.96352 | 10165 ft | 295 kts | 115° |
| 2026-04-29 00:55 | -12.27200 | -76.94438 | 10819 ft | 303 kts | 115° |
| 2026-04-29 00:55 | -12.28127 | -76.92483 | 11425 ft | 309 kts | 115° |
| 2026-04-29 00:56 | -12.29072 | -76.90501 | 12107 ft | 312 kts | 116° |
| 2026-04-29 00:56 | -12.30027 | -76.88512 | 12818 ft | 314 kts | 116° |
| 2026-04-29 00:56 | -12.30985 | -76.86522 | 13470 ft | 317 kts | 116° |
| 2026-04-29 00:56 | -12.31965 | -76.84489 | 13962 ft | 320 kts | 116° |
| 2026-04-29 00:57 | -12.32949 | -76.82451 | 14609 ft | 322 kts | 116° |
| 2026-04-29 00:57 | -12.33937 | -76.80399 | 15294 ft | 325 kts | 116° |
| 2026-04-29 00:57 | -12.34947 | -76.78303 | 15798 ft | 329 kts | 116° |
| 2026-04-29 00:57 | -12.35951 | -76.76219 | 16349 ft | 331 kts | 116° |
| 2026-04-29 00:58 | -12.36978 | -76.74086 | 16919 ft | 334 kts | 116° |
| 2026-04-29 00:58 | -12.38001 | -76.71961 | 17495 ft | 337 kts | 117° |
| 2026-04-29 00:58 | -12.39035 | -76.69811 | 18101 ft | 340 kts | 117° |
| 2026-04-29 00:58 | -12.40086 | -76.67631 | 18629 ft | 343 kts | 117° |
| 2026-04-29 00:59 | -12.41136 | -76.65449 | 19188 ft | 346 kts | 117° |
| 2026-04-29 00:59 | -12.42201 | -76.63233 | 19749 ft | 349 kts | 117° |
| 2026-04-29 00:59 | -12.43284 | -76.60995 | 20324 ft | 352 kts | 117° |
| 2026-04-29 00:59 | -12.44370 | -76.58756 | 20821 ft | 354 kts | 117° |
| 2026-04-29 01:00 | -12.45473 | -76.56486 | 21354 ft | 357 kts | 117° |
| 2026-04-29 01:00 | -12.46590 | -76.54185 | 21880 ft | 360 kts | 117° |
| 2026-04-29 01:00 | -12.47700 | -76.51894 | 22381 ft | 363 kts | 117° |
| 2026-04-29 01:00 | -12.48836 | -76.49555 | 22878 ft | 367 kts | 117° |
| 2026-04-29 01:01 | -12.49967 | -76.47227 | 23351 ft | 371 kts | 117° |
| 2026-04-29 01:01 | -12.51114 | -76.44860 | 23809 ft | 375 kts | 116° |
| 2026-04-29 01:01 | -12.52285 | -76.42446 | 24223 ft | 380 kts | 116° |
| 2026-04-29 01:01 | -12.53465 | -76.40005 | 24669 ft | 384 kts | 116° |
| 2026-04-29 01:02 | -12.54650 | -76.37556 | 25129 ft | 388 kts | 116° |
| 2026-04-29 01:02 | -12.55854 | -76.35065 | 25584 ft | 391 kts | 115° |
| 2026-04-29 01:02 | -12.57070 | -76.32548 | 26016 ft | 395 kts | 115° |
| 2026-04-29 01:02 | -12.58298 | -76.30006 | 26453 ft | 398 kts | 115° |
| 2026-04-29 01:03 | -12.59520 | -76.27477 | 26885 ft | 401 kts | 115° |
| 2026-04-29 01:03 | -12.60764 | -76.24900 | 27309 ft | 405 kts | 114° |
| 2026-04-29 01:03 | -12.62020 | -76.22298 | 27729 ft | 408 kts | 114° |
| 2026-04-29 01:03 | -12.63289 | -76.19669 | 28139 ft | 411 kts | 114° |
| 2026-04-29 01:04 | -12.64549 | -76.17054 | 28528 ft | 415 kts | 114° |
| 2026-04-29 01:04 | -12.65830 | -76.14399 | 28935 ft | 418 kts | 114° |
| 2026-04-29 01:04 | -12.67124 | -76.11716 | 29312 ft | 422 kts | 114° |
| 2026-04-29 01:04 | -12.68428 | -76.09003 | 29695 ft | 425 kts | 114° |
| 2026-04-29 01:05 | -12.69734 | -76.06291 | 30059 ft | 429 kts | 114° |
| 2026-04-29 01:05 | -12.71072 | -76.03514 | 30434 ft | 432 kts | 113° |
| 2026-04-29 01:05 | -12.72409 | -76.00723 | 30793 ft | 435 kts | 112° |
| 2026-04-29 01:05 | -12.73645 | -75.97849 | 31189 ft | 436 kts | 109° |
| 2026-04-29 01:06 | -12.74695 | -75.94938 | 31618 ft | 436 kts | 105° |
| 2026-04-29 01:06 | -12.75563 | -75.91978 | 31998 ft | 436 kts | 101° |
| 2026-04-29 01:06 | -12.76290 | -75.88964 | 32299 ft | 439 kts | 99° |
| 2026-04-29 01:06 | -12.77003 | -75.85889 | 32604 ft | 443 kts | 99° |
| 2026-04-29 01:07 | -12.77712 | -75.82812 | 32999 ft | 445 kts | 99° |
| 2026-04-29 01:07 | -12.78424 | -75.79740 | 33378 ft | 447 kts | 99° |
| 2026-04-29 01:07 | -12.79138 | -75.76662 | 33721 ft | 449 kts | 99° |
| 2026-04-29 01:07 | -12.79869 | -75.73523 | 34057 ft | 451 kts | 100° |
| 2026-04-29 01:08 | -12.80600 | -75.70395 | 34446 ft | 452 kts | 100° |
| 2026-04-29 01:08 | -12.81324 | -75.67300 | 34884 ft | 451 kts | 100° |
| 2026-04-29 01:08 | -12.82060 | -75.64160 | 35318 ft | 450 kts | 100° |
| 2026-04-29 01:08 | -12.82782 | -75.61076 | 35724 ft | 449 kts | 100° |
| 2026-04-29 01:09 | -12.83515 | -75.57942 | 36078 ft | 449 kts | 99° |
| 2026-04-29 01:09 | -12.84234 | -75.54855 | 36378 ft | 450 kts | 99° |
| 2026-04-29 01:09 | -12.84966 | -75.51714 | 36636 ft | 452 kts | 100° |
| 2026-04-29 01:09 | -12.85699 | -75.48573 | 36895 ft | 453 kts | 99° |
| 2026-04-29 01:10 | -12.86428 | -75.45438 | 37108 ft | 455 kts | 99° |
| 2026-04-29 01:10 | -12.87160 | -75.42291 | 37344 ft | 456 kts | 99° |
| 2026-04-29 01:10 | -12.87895 | -75.39134 | 37561 ft | 458 kts | 100° |
| 2026-04-29 01:10 | -12.88636 | -75.35952 | 37767 ft | 459 kts | 99° |
| 2026-04-29 01:11 | -12.89377 | -75.32760 | 37968 ft | 460 kts | 99° |
| 2026-04-29 01:11 | -12.90859 | -75.26382 | 37991 ft | 462 kts | 99° |
| 2026-04-29 01:12 | -12.92356 | -75.19941 | 37985 ft | 462 kts | 99° |
| 2026-04-29 01:12 | -12.93843 | -75.13519 | 38007 ft | 463 kts | 99° |
| 2026-04-29 01:13 | -12.95320 | -75.07134 | 38016 ft | 463 kts | 99° |
| 2026-04-29 01:13 | -12.96808 | -75.00698 | 38033 ft | 462 kts | 99° |
| 2026-04-29 01:14 | -12.98286 | -74.94291 | 38028 ft | 463 kts | 99° |
| 2026-04-29 01:14 | -12.99774 | -74.87856 | 38010 ft | 462 kts | 99° |
| 2026-04-29 01:15 | -13.01250 | -74.81445 | 37968 ft | 462 kts | 99° |
| 2026-04-29 01:15 | -13.02728 | -74.75028 | 37944 ft | 464 kts | 99° |
| 2026-04-29 01:16 | -13.04218 | -74.68547 | 37929 ft | 462 kts | 99° |
| 2026-04-29 01:16 | -13.05689 | -74.62132 | 37946 ft | 463 kts | 99° |
| 2026-04-29 01:17 | -13.07169 | -74.55687 | 37919 ft | 462 kts | 99° |
| 2026-04-29 01:17 | -13.08629 | -74.49309 | 37899 ft | 462 kts | 99° |
| 2026-04-29 01:18 | -13.10103 | -74.42867 | 37849 ft | 462 kts | 99° |
| 2026-04-29 01:18 | -13.12299 | -74.33246 | 37767 ft | 461 kts | 99° |
| 2026-04-29 01:19 | -13.13759 | -74.26844 | 37690 ft | 461 kts | 99° |
| 2026-04-29 01:19 | -13.15224 | -74.20409 | 37594 ft | 461 kts | 99° |
| 2026-04-29 01:20 | -13.16690 | -74.13983 | 37612 ft | 461 kts | 99° |
| 2026-04-29 01:20 | -13.18134 | -74.07622 | 37641 ft | 461 kts | 99° |
| 2026-04-29 01:21 | -13.19582 | -74.01235 | 37710 ft | 460 kts | 99° |
| 2026-04-29 01:21 | -13.21036 | -73.94824 | 37706 ft | 460 kts | 99° |
| 2026-04-29 01:22 | -13.22482 | -73.88429 | 37733 ft | 459 kts | 99° |
| 2026-04-29 01:22 | -13.23921 | -73.82068 | 37729 ft | 460 kts | 99° |
| 2026-04-29 01:23 | -13.25360 | -73.75684 | 37695 ft | 459 kts | 99° |
| 2026-04-29 01:23 | -13.26805 | -73.69276 | 37702 ft | 459 kts | 99° |
| 2026-04-29 01:24 | -13.28246 | -73.62881 | 37734 ft | 460 kts | 99° |
| 2026-04-29 01:24 | -13.29676 | -73.56535 | 37774 ft | 458 kts | 99° |
| 2026-04-29 01:25 | -13.31112 | -73.50141 | 37809 ft | 459 kts | 99° |
| 2026-04-29 01:25 | -13.32542 | -73.43773 | 37807 ft | 458 kts | 99° |
| 2026-04-29 01:26 | -13.33967 | -73.37408 | 37776 ft | 458 kts | 99° |
| 2026-04-29 01:26 | -13.35397 | -73.31018 | 37737 ft | 458 kts | 99° |
| 2026-04-29 01:27 | -13.36828 | -73.24622 | 37711 ft | 458 kts | 99° |
| 2026-04-29 01:27 | -13.38260 | -73.18203 | 37710 ft | 458 kts | 99° |
| 2026-04-29 01:28 | -13.39683 | -73.11828 | 37726 ft | 458 kts | 99° |
| 2026-04-29 01:28 | -13.41114 | -73.05405 | 37756 ft | 459 kts | 99° |
| 2026-04-29 01:29 | -13.42535 | -72.99012 | 37784 ft | 459 kts | 99° |
| 2026-04-29 01:29 | -13.43958 | -72.92607 | 37691 ft | 454 kts | 99° |
| 2026-04-29 01:30 | -13.44652 | -72.89478 | 37200 ft | 452 kts | 99° |
| 2026-04-29 01:30 | -13.45395 | -72.86314 | 36377 ft | 455 kts | 101° |
| 2026-04-29 01:30 | -13.46214 | -72.83179 | 35697 ft | 454 kts | 102° |
| 2026-04-29 01:30 | -13.47034 | -72.80092 | 35157 ft | 450 kts | 103° |
| 2026-04-29 01:31 | -13.47863 | -72.76982 | 34625 ft | 446 kts | 103° |
| 2026-04-29 01:31 | -13.48672 | -72.73945 | 34077 ft | 443 kts | 103° |
| 2026-04-29 01:31 | -13.49476 | -72.70911 | 33519 ft | 440 kts | 103° |
| 2026-04-29 01:31 | -13.50281 | -72.67873 | 32993 ft | 437 kts | 103° |
| 2026-04-29 01:32 | -13.51070 | -72.64887 | 32493 ft | 433 kts | 103° |
| 2026-04-29 01:32 | -13.51852 | -72.61932 | 32025 ft | 430 kts | 103° |
| 2026-04-29 01:32 | -13.52629 | -72.58987 | 31598 ft | 425 kts | 103° |
| 2026-04-29 01:32 | -13.53408 | -72.56035 | 31171 ft | 421 kts | 104° |
| 2026-04-29 01:33 | -13.54161 | -72.53181 | 30724 ft | 418 kts | 104° |
| 2026-04-29 01:33 | -13.54920 | -72.50302 | 30296 ft | 413 kts | 104° |
| 2026-04-29 01:33 | -13.55668 | -72.47469 | 29868 ft | 409 kts | 104° |
| 2026-04-29 01:33 | -13.56409 | -72.44659 | 29428 ft | 406 kts | 104° |
| 2026-04-29 01:34 | -13.57140 | -72.41879 | 29022 ft | 401 kts | 104° |
| 2026-04-29 01:34 | -13.57859 | -72.39147 | 28603 ft | 397 kts | 104° |
| 2026-04-29 01:34 | -13.58581 | -72.36397 | 28180 ft | 394 kts | 105° |
| 2026-04-29 01:34 | -13.59285 | -72.33719 | 27767 ft | 391 kts | 105° |
| 2026-04-29 01:35 | -13.59998 | -72.31004 | 27348 ft | 387 kts | 105° |
| 2026-04-29 01:35 | -13.60696 | -72.28351 | 26913 ft | 384 kts | 105° |
| 2026-04-29 01:35 | -13.61391 | -72.25705 | 26478 ft | 382 kts | 105° |
| 2026-04-29 01:35 | -13.62077 | -72.23096 | 26056 ft | 379 kts | 105° |
| 2026-04-29 01:36 | -13.62764 | -72.20483 | 25645 ft | 376 kts | 105° |
| 2026-04-29 01:36 | -13.63431 | -72.17937 | 25238 ft | 373 kts | 105° |
| 2026-04-29 01:36 | -13.64108 | -72.15356 | 24823 ft | 370 kts | 105° |
| 2026-04-29 01:36 | -13.64771 | -72.12823 | 24433 ft | 367 kts | 105° |
| 2026-04-29 01:37 | -13.65425 | -72.10324 | 24041 ft | 363 kts | 105° |
| 2026-04-29 01:37 | -13.66085 | -72.07802 | 23633 ft | 361 kts | 105° |
| 2026-04-29 01:37 | -13.66734 | -72.05331 | 23242 ft | 358 kts | 105° |
| 2026-04-29 01:37 | -13.67375 | -72.02881 | 22852 ft | 356 kts | 105° |
| 2026-04-29 01:38 | -13.68053 | -72.00427 | 22460 ft | 353 kts | 109° |
| 2026-04-29 01:38 | -13.68929 | -71.98091 | 22083 ft | 350 kts | 115° |
| 2026-04-29 01:38 | -13.70025 | -71.95887 | 21711 ft | 348 kts | 120° |
| 2026-04-29 01:38 | -13.71248 | -71.93742 | 21334 ft | 345 kts | 121° |
| 2026-04-29 01:39 | -13.72471 | -71.91634 | 20961 ft | 343 kts | 121° |
| 2026-04-29 01:39 | -13.73701 | -71.89509 | 20603 ft | 341 kts | 121° |
| 2026-04-29 01:39 | -13.74899 | -71.87426 | 20363 ft | 335 kts | 121° |
| 2026-04-29 01:39 | -13.76068 | -71.85393 | 20135 ft | 328 kts | 121° |
| 2026-04-29 01:40 | -13.77089 | -71.83309 | 19877 ft | 324 kts | 109° |
| 2026-04-29 01:40 | -13.77579 | -71.81058 | 19634 ft | 321 kts | 95° |
| 2026-04-29 01:40 | -13.77544 | -71.78782 | 19421 ft | 316 kts | 83° |
| 2026-04-29 01:40 | -13.77023 | -71.76621 | 19253 ft | 312 kts | 70° |
| 2026-04-29 01:41 | -13.76056 | -71.74635 | 19078 ft | 308 kts | 57° |
| 2026-04-29 01:41 | -13.74712 | -71.72940 | 18855 ft | 303 kts | 44° |
| 2026-04-29 01:41 | -13.73074 | -71.71607 | 18598 ft | 299 kts | 32° |
| 2026-04-29 01:41 | -13.71240 | -71.70679 | 18358 ft | 293 kts | 20° |
| 2026-04-29 01:42 | -13.69259 | -71.70184 | 18068 ft | 289 kts | 7° |
| 2026-04-29 01:42 | -13.67242 | -71.70130 | 17783 ft | 285 kts | 355° |
| 2026-04-29 01:42 | -13.65315 | -71.70493 | 17511 ft | 282 kts | 343° |
| 2026-04-29 01:42 | -13.63505 | -71.71236 | 17251 ft | 278 kts | 332° |
| 2026-04-29 01:43 | -13.61883 | -71.72336 | 16980 ft | 275 kts | 320° |
| 2026-04-29 01:43 | -13.60541 | -71.73697 | 16610 ft | 269 kts | 309° |
| 2026-04-29 01:43 | -13.59505 | -71.75266 | 16095 ft | 264 kts | 297° |
| 2026-04-29 01:43 | -13.58754 | -71.76967 | 15644 ft | 259 kts | 292° |
| 2026-04-29 01:44 | -13.58097 | -71.78674 | 15224 ft | 254 kts | 292° |
| 2026-04-29 01:44 | -13.57466 | -71.80325 | 14820 ft | 250 kts | 292° |
| 2026-04-29 01:44 | -13.56846 | -71.81954 | 14566 ft | 235 kts | 291° |
| 2026-04-29 01:44 | -13.56326 | -71.83496 | 14288 ft | 224 kts | 289° |
| 2026-04-29 01:45 | -13.55807 | -71.85002 | 13820 ft | 223 kts | 293° |
| 2026-04-29 01:45 | -13.55076 | -71.86421 | 13228 ft | 227 kts | 302° |
| 2026-04-29 01:45 | -13.54369 | -71.87852 | 12696 ft | 228 kts | 288° |
| 2026-04-29 01:45 | -13.54039 | -71.89442 | 12196 ft | 227 kts | 278° |
| 2026-04-29 01:46 | -13.53867 | -71.91045 | 11701 ft | 226 kts | 277° |
| 2026-04-29 01:46 | -13.53664 | -71.92709 | 11495 ft | 245 kts | 276° |
| 2026-04-29 01:46 | -13.53466 | -71.94414 | 11417 ft | 234 kts | 278° |
| 2026-04-29 01:46 | -13.53241 | -71.96066 | 11276 ft | 243 kts | 278° |
| 2026-04-29 01:47 | -13.52726 | -71.97745 | 11664 ft | 250 kts | 303° |
| 2026-04-29 01:47 | -13.51722 | -71.99131 | 12525 ft | 240 kts | 311° |
| 2026-04-29 01:47 | -13.50748 | -72.00479 | 13391 ft | 232 kts | 301° |
| 2026-04-29 01:47 | -13.50050 | -72.01916 | 14150 ft | 225 kts | 294° |
| 2026-04-29 01:48 | -13.49440 | -72.03364 | 14829 ft | 222 kts | 291° |
| 2026-04-29 01:48 | -13.49076 | -72.04886 | 15453 ft | 220 kts | 278° |
| 2026-04-29 01:48 | -13.48872 | -72.06436 | 15931 ft | 227 kts | 278° |
| 2026-04-29 01:48 | -13.48640 | -72.08110 | 16200 ft | 243 kts | 278° |
| 2026-04-29 01:49 | -13.48391 | -72.09872 | 16616 ft | 253 kts | 278° |
| 2026-04-29 01:49 | -13.48126 | -72.11691 | 16994 ft | 265 kts | 278° |
| 2026-04-29 01:49 | -13.47842 | -72.13603 | 17421 ft | 274 kts | 279° |
| 2026-04-29 01:49 | -13.47375 | -72.15509 | 17907 ft | 280 kts | 294° |
| 2026-04-29 01:50 | -13.46317 | -72.17165 | 18419 ft | 283 kts | 315° |
| 2026-04-29 01:50 | -13.44758 | -72.18394 | 18993 ft | 284 kts | 332° |
| 2026-04-29 01:50 | -13.42925 | -72.19092 | 19577 ft | 283 kts | 350° |
| 2026-04-29 01:50 | -13.40958 | -72.19240 | 20190 ft | 281 kts | 5° |
| 2026-04-29 01:51 | -13.39064 | -72.18866 | 20775 ft | 280 kts | 21° |
| 2026-04-29 01:51 | -13.37270 | -72.18048 | 21160 ft | 288 kts | 23° |
| 2026-04-29 01:51 | -13.35344 | -72.17369 | 21361 ft | 295 kts | 20° |
| 2026-04-29 01:51 | -13.33406 | -72.16565 | 21429 ft | 298 kts | 28° |
| 2026-04-29 01:52 | -13.31689 | -72.15403 | 21340 ft | 296 kts | 43° |
| 2026-04-29 01:52 | -13.30340 | -72.13822 | 21246 ft | 294 kts | 59° |
| 2026-04-29 01:52 | -13.29461 | -72.11940 | 21159 ft | 291 kts | 75° |
| 2026-04-29 01:52 | -13.29118 | -72.09919 | 21088 ft | 290 kts | 90° |
| 2026-04-29 01:53 | -13.29324 | -72.07873 | 21013 ft | 288 kts | 105° |
| 2026-04-29 01:53 | -13.30061 | -72.05980 | 20938 ft | 287 kts | 122° |
| 2026-04-29 01:53 | -13.31416 | -72.04512 | 20914 ft | 286 kts | 153° |
| 2026-04-29 01:53 | -13.33325 | -72.03940 | 20908 ft | 286 kts | 178° |
| 2026-04-29 01:54 | -13.35281 | -72.04221 | 20901 ft | 286 kts | 202° |
| 2026-04-29 01:54 | -13.36956 | -72.05338 | 20882 ft | 287 kts | 227° |
| 2026-04-29 01:54 | -13.37992 | -72.07075 | 20859 ft | 289 kts | 253° |
| 2026-04-29 01:54 | -13.38454 | -72.09071 | 20939 ft | 289 kts | 252° |
| 2026-04-29 01:55 | -13.39267 | -72.10956 | 21069 ft | 290 kts | 234° |
| 2026-04-29 01:55 | -13.40605 | -72.12504 | 21201 ft | 289 kts | 217° |
| 2026-04-29 01:55 | -13.42316 | -72.13547 | 21347 ft | 289 kts | 200° |
| 2026-04-29 01:55 | -13.44271 | -72.14075 | 21567 ft | 290 kts | 187° |
| 2026-04-29 01:56 | -13.46309 | -72.14266 | 21702 ft | 291 kts | 182° |
| 2026-04-29 01:56 | -13.48324 | -72.14275 | 21797 ft | 291 kts | 177° |
| 2026-04-29 01:56 | -13.50347 | -72.14127 | 21898 ft | 292 kts | 175° |
| 2026-04-29 01:56 | -13.52395 | -72.13943 | 22009 ft | 293 kts | 175° |
| 2026-04-29 01:57 | -13.54429 | -72.13747 | 22138 ft | 293 kts | 174° |
| 2026-04-29 01:57 | -13.56469 | -72.13540 | 22265 ft | 295 kts | 175° |
| 2026-04-29 01:57 | -13.58516 | -72.13660 | 22235 ft | 293 kts | 200° |
| 2026-04-29 01:57 | -13.60196 | -72.14750 | 22073 ft | 288 kts | 230° |
| 2026-04-29 01:58 | -13.61090 | -72.16592 | 21691 ft | 290 kts | 260° |
| 2026-04-29 01:58 | -13.61090 | -72.18650 | 21335 ft | 290 kts | 281° |
| 2026-04-29 01:58 | -13.60415 | -72.20561 | 21204 ft | 291 kts | 301° |
| 2026-04-29 01:58 | -13.59090 | -72.22168 | 21209 ft | 295 kts | 322° |
| 2026-04-29 01:59 | -13.57273 | -72.23135 | 21214 ft | 297 kts | 346° |
| 2026-04-29 01:59 | -13.55237 | -72.23502 | 21292 ft | 297 kts | 346° |
| 2026-04-29 01:59 | -13.53313 | -72.24265 | 21398 ft | 297 kts | 326° |
| 2026-04-29 01:59 | -13.51827 | -72.25706 | 21444 ft | 296 kts | 302° |
| 2026-04-29 02:00 | -13.51025 | -72.27628 | 21366 ft | 294 kts | 278° |
| 2026-04-29 02:00 | -13.51058 | -72.29702 | 21267 ft | 291 kts | 254° |
| 2026-04-29 02:00 | -13.51692 | -72.31656 | 21237 ft | 290 kts | 246° |
| 2026-04-29 02:00 | -13.52505 | -72.33556 | 21251 ft | 289 kts | 244° |
| 2026-04-29 02:01 | -13.53348 | -72.35414 | 21276 ft | 290 kts | 244° |
| 2026-04-29 02:01 | -13.54182 | -72.37326 | 21311 ft | 290 kts | 248° |
| 2026-04-29 02:01 | -13.54787 | -72.39278 | 21285 ft | 290 kts | 255° |
| 2026-04-29 02:01 | -13.55212 | -72.41308 | 21256 ft | 290 kts | 259° |
| 2026-04-29 02:02 | -13.55477 | -72.43358 | 21219 ft | 291 kts | 266° |
| 2026-04-29 02:02 | -13.55343 | -72.45430 | 21152 ft | 293 kts | 284° |
| 2026-04-29 02:02 | -13.54716 | -72.47414 | 21118 ft | 293 kts | 288° |
| 2026-04-29 02:02 | -13.54007 | -72.49387 | 21191 ft | 295 kts | 289° |
| 2026-04-29 02:03 | -13.53259 | -72.51346 | 21291 ft | 296 kts | 291° |
| 2026-04-29 02:03 | -13.52472 | -72.53291 | 21402 ft | 296 kts | 292° |
| 2026-04-29 02:03 | -13.51724 | -72.55312 | 21602 ft | 307 kts | 285° |
| 2026-04-29 02:03 | -13.51209 | -72.57455 | 21996 ft | 315 kts | 279° |
| 2026-04-29 02:04 | -13.50870 | -72.59644 | 22722 ft | 310 kts | 276° |
| 2026-04-29 02:04 | -13.50642 | -72.61816 | 23452 ft | 306 kts | 274° |
| 2026-04-29 02:04 | -13.50418 | -72.63963 | 24162 ft | 302 kts | 275° |
| 2026-04-29 02:04 | -13.50190 | -72.66132 | 24521 ft | 309 kts | 276° |
| 2026-04-29 02:05 | -13.49862 | -72.68300 | 24482 ft | 311 kts | 282° |
| 2026-04-29 02:05 | -13.49321 | -72.70462 | 24413 ft | 311 kts | 284° |
| 2026-04-29 02:05 | -13.48749 | -72.72589 | 24365 ft | 310 kts | 285° |
| 2026-04-29 02:05 | -13.48158 | -72.74738 | 24311 ft | 310 kts | 285° |
| 2026-04-29 02:06 | -13.47589 | -72.76879 | 24239 ft | 310 kts | 283° |
| 2026-04-29 02:06 | -13.47131 | -72.79033 | 24167 ft | 309 kts | 279° |
| 2026-04-29 02:06 | -13.46740 | -72.81184 | 24259 ft | 310 kts | 282° |
| 2026-04-29 02:06 | -13.46228 | -72.83361 | 24382 ft | 312 kts | 284° |
| 2026-04-29 02:07 | -13.45624 | -72.85487 | 24367 ft | 314 kts | 293° |
| 2026-04-29 02:07 | -13.44417 | -72.87341 | 24142 ft | 312 kts | 320° |
| 2026-04-29 02:07 | -13.42536 | -72.88379 | 24070 ft | 310 kts | 348° |
| 2026-04-29 02:07 | -13.40361 | -72.88395 | 24219 ft | 312 kts | 16° |
| 2026-04-29 02:08 | -13.38464 | -72.87382 | 24296 ft | 312 kts | 44° |
| 2026-04-29 02:08 | -13.37231 | -72.85551 | 24266 ft | 312 kts | 72° |
| 2026-04-29 02:08 | -13.36986 | -72.83389 | 24120 ft | 309 kts | 101° |
| 2026-04-29 02:08 | -13.37790 | -72.81361 | 24022 ft | 306 kts | 129° |
| 2026-04-29 02:09 | -13.39341 | -72.79862 | 24012 ft | 305 kts | 144° |
| 2026-04-29 02:09 | -13.41128 | -72.78680 | 24072 ft | 306 kts | 149° |
| 2026-04-29 02:09 | -13.42973 | -72.77567 | 24179 ft | 307 kts | 151° |
| 2026-04-29 02:09 | -13.44795 | -72.76430 | 24295 ft | 308 kts | 144° |
| 2026-04-29 02:10 | -13.46454 | -72.75037 | 24386 ft | 307 kts | 135° |
| 2026-04-29 02:10 | -13.47669 | -72.73290 | 24313 ft | 300 kts | 108° |
| 2026-04-29 02:10 | -13.47851 | -72.71214 | 24075 ft | 293 kts | 84° |
| 2026-04-29 02:10 | -13.47573 | -72.69148 | 23841 ft | 287 kts | 82° |
| 2026-04-29 02:11 | -13.47260 | -72.67133 | 23486 ft | 287 kts | 82° |
| 2026-04-29 02:11 | -13.46924 | -72.65115 | 23129 ft | 286 kts | 82° |
| 2026-04-29 02:11 | -13.46627 | -72.63120 | 22780 ft | 285 kts | 84° |
| 2026-04-29 02:11 | -13.46420 | -72.61097 | 22429 ft | 284 kts | 87° |
| 2026-04-29 02:12 | -13.46308 | -72.59077 | 22093 ft | 283 kts | 90° |
| 2026-04-29 02:12 | -13.46290 | -72.57059 | 21755 ft | 280 kts | 92° |
| 2026-04-29 02:12 | -13.46365 | -72.55080 | 21428 ft | 278 kts | 95° |
| 2026-04-29 02:12 | -13.46509 | -72.53092 | 20991 ft | 281 kts | 96° |
| 2026-04-29 02:13 | -13.46706 | -72.51081 | 20559 ft | 283 kts | 98° |
| 2026-04-29 02:13 | -13.46941 | -72.49068 | 20166 ft | 285 kts | 98° |
| 2026-04-29 02:13 | -13.47172 | -72.47075 | 19813 ft | 285 kts | 97° |
| 2026-04-29 02:13 | -13.47405 | -72.45049 | 19488 ft | 283 kts | 97° |
| 2026-04-29 02:14 | -13.47628 | -72.43045 | 19297 ft | 283 kts | 97° |
| 2026-04-29 02:14 | -13.47878 | -72.40945 | 19260 ft | 304 kts | 98° |
| 2026-04-29 02:14 | -13.48193 | -72.38845 | 19233 ft | 291 kts | 100° |
| 2026-04-29 02:14 | -13.48557 | -72.36844 | 19151 ft | 280 kts | 102° |
| 2026-04-29 02:15 | -13.48965 | -72.34942 | 19012 ft | 272 kts | 103° |
| 2026-04-29 02:15 | -13.49361 | -72.33053 | 18862 ft | 264 kts | 99° |
| 2026-04-29 02:15 | -13.49617 | -72.31203 | 18679 ft | 259 kts | 96° |
| 2026-04-29 02:15 | -13.49763 | -72.29391 | 18497 ft | 253 kts | 94° |
| 2026-04-29 02:16 | -13.49909 | -72.27619 | 18364 ft | 253 kts | 96° |
| 2026-04-29 02:16 | -13.50112 | -72.25765 | 18341 ft | 268 kts | 97° |
| 2026-04-29 02:16 | -13.50356 | -72.23839 | 18353 ft | 271 kts | 97° |
| 2026-04-29 02:16 | -13.50583 | -72.21933 | 18369 ft | 272 kts | 97° |
| 2026-04-29 02:17 | -13.50795 | -72.19991 | 18387 ft | 272 kts | 94° |
| 2026-04-29 02:17 | -13.50850 | -72.18041 | 18395 ft | 272 kts | 91° |
| 2026-04-29 02:17 | -13.50902 | -72.16103 | 18389 ft | 272 kts | 93° |
| 2026-04-29 02:17 | -13.51017 | -72.14168 | 18390 ft | 272 kts | 95° |
| 2026-04-29 02:18 | -13.51185 | -72.12237 | 18343 ft | 272 kts | 96° |
| 2026-04-29 02:18 | -13.51398 | -72.10319 | 18277 ft | 271 kts | 97° |
| 2026-04-29 02:18 | -13.51600 | -72.08390 | 18197 ft | 271 kts | 96° |
| 2026-04-29 02:18 | -13.51797 | -72.06488 | 18079 ft | 263 kts | 97° |
| 2026-04-29 02:19 | -13.52037 | -72.04652 | 17904 ft | 256 kts | 96° |
| 2026-04-29 02:19 | -13.52135 | -72.02854 | 17670 ft | 252 kts | 91° |
| 2026-04-29 02:19 | -13.52272 | -72.01087 | 17469 ft | 245 kts | 102° |
| 2026-04-29 02:19 | -13.52740 | -71.99417 | 17296 ft | 243 kts | 109° |
| 2026-04-29 02:20 | -13.53268 | -71.97768 | 17128 ft | 243 kts | 104° |
| 2026-04-29 02:20 | -13.53625 | -71.96088 | 16960 ft | 242 kts | 98° |
| 2026-04-29 02:20 | -13.53846 | -71.94373 | 16801 ft | 241 kts | 99° |
| 2026-04-29 02:20 | -13.54194 | -71.92703 | 16648 ft | 240 kts | 103° |
| 2026-04-29 02:21 | -13.54562 | -71.91029 | 16502 ft | 240 kts | 101° |
| 2026-04-29 02:21 | -13.54894 | -71.89353 | 16376 ft | 239 kts | 102° |
| 2026-04-29 02:21 | -13.55241 | -71.87675 | 16210 ft | 239 kts | 101° |
| 2026-04-29 02:21 | -13.55601 | -71.86007 | 16016 ft | 238 kts | 103° |
| 2026-04-29 02:22 | -13.56010 | -71.84362 | 15867 ft | 237 kts | 104° |
| 2026-04-29 02:22 | -13.56261 | -71.82711 | 15829 ft | 237 kts | 85° |
| 2026-04-29 02:22 | -13.56044 | -71.81018 | 15911 ft | 237 kts | 90° |
| 2026-04-29 02:22 | -13.56467 | -71.79418 | 15941 ft | 239 kts | 128° |
| 2026-04-29 02:23 | -13.57812 | -71.78453 | 15998 ft | 242 kts | 168° |
| 2026-04-29 02:23 | -13.59470 | -71.78581 | 16074 ft | 245 kts | 206° |
| 2026-04-29 02:23 | -13.60740 | -71.79744 | 15875 ft | 247 kts | 245° |
| 2026-04-29 02:23 | -13.61007 | -71.81445 | 15587 ft | 246 kts | 286° |
| 2026-04-29 02:24 | -13.60113 | -71.82885 | 15235 ft | 243 kts | 329° |
| 2026-04-29 02:24 | -13.58565 | -71.83558 | 14789 ft | 247 kts | 338° |
| 2026-04-29 02:24 | -13.57059 | -71.84406 | 14267 ft | 249 kts | 326° |
| 2026-04-29 02:25 | -13.54603 | -71.86593 | 13732 ft | 218 kts | 300° |
| 2026-04-29 02:25 | -13.54162 | -71.88062 | 13190 ft | 222 kts | 282° |
| 2026-04-29 02:25 | -13.53949 | -71.89656 | 12501 ft | 231 kts | 278° |
| 2026-04-29 02:25 | -13.53773 | -71.91309 | 11800 ft | 239 kts | 275° |
| 2026-04-29 02:26 | -13.53662 | -71.93021 | 11150 ft | 242 kts | 275° |
| 2026-04-29 02:26 | -13.53554 | -71.94601 | 11433 ft | 217 kts | 278° |
| 2026-04-29 02:26 | -13.53391 | -71.96175 | 11782 ft | 227 kts | 280° |
| 2026-04-29 02:26 | -13.53064 | -71.97829 | 12112 ft | 246 kts | 292° |
| 2026-04-29 02:27 | -13.52076 | -71.99264 | 12623 ft | 254 kts | 323° |
| 2026-04-29 02:27 | -13.50512 | -72.00075 | 13359 ft | 252 kts | 335° |
| 2026-04-29 02:27 | -13.49192 | -72.01191 | 14197 ft | 248 kts | 301° |
| 2026-04-29 02:27 | -13.48427 | -72.02719 | 15090 ft | 238 kts | 296° |
| 2026-04-29 02:28 | -13.47743 | -72.04206 | 15897 ft | 230 kts | 295° |
| 2026-04-29 02:28 | -13.47091 | -72.05690 | 16592 ft | 226 kts | 294° |
| 2026-04-29 02:28 | -13.46482 | -72.07143 | 17184 ft | 223 kts | 292° |
| 2026-04-29 02:28 | -13.45890 | -72.08604 | 17689 ft | 225 kts | 294° |
| 2026-04-29 02:29 | -13.45118 | -72.10077 | 17967 ft | 241 kts | 309° |
| 2026-04-29 02:29 | -13.43890 | -72.11295 | 18241 ft | 256 kts | 316° |
| 2026-04-29 02:29 | -13.42761 | -72.12785 | 18518 ft | 271 kts | 297° |
| 2026-04-29 02:29 | -13.41937 | -72.14568 | 18935 ft | 280 kts | 292° |
| 2026-04-29 02:30 | -13.41189 | -72.16403 | 19478 ft | 283 kts | 292° |
| 2026-04-29 02:30 | -13.40449 | -72.18259 | 20016 ft | 285 kts | 291° |
| 2026-04-29 02:30 | -13.39716 | -72.20164 | 20541 ft | 288 kts | 285° |
| 2026-04-29 02:30 | -13.39589 | -72.22216 | 20986 ft | 290 kts | 254° |
| 2026-04-29 02:31 | -13.40502 | -72.24032 | 21231 ft | 289 kts | 230° |
| 2026-04-29 02:31 | -13.41534 | -72.25788 | 21632 ft | 293 kts | 250° |
| 2026-04-29 02:31 | -13.41944 | -72.27836 | 21913 ft | 298 kts | 262° |
| 2026-04-29 02:31 | -13.42035 | -72.29961 | 21808 ft | 297 kts | 273° |
| 2026-04-29 02:32 | -13.41748 | -72.32040 | 21624 ft | 290 kts | 283° |
| 2026-04-29 02:32 | -13.41532 | -72.34030 | 21510 ft | 276 kts | 262° |
| 2026-04-29 02:32 | -13.41725 | -72.35957 | 21354 ft | 269 kts | 264° |
| 2026-04-29 02:32 | -13.41795 | -72.37932 | 21199 ft | 285 kts | 269° |
| 2026-04-29 02:33 | -13.41766 | -72.39978 | 21133 ft | 288 kts | 268° |
| 2026-04-29 02:33 | -13.41831 | -72.42050 | 21085 ft | 289 kts | 265° |
| 2026-04-29 02:33 | -13.41996 | -72.44106 | 21168 ft | 290 kts | 264° |
| 2026-04-29 02:33 | -13.42117 | -72.46169 | 21307 ft | 291 kts | 268° |
| 2026-04-29 02:34 | -13.42174 | -72.48234 | 21397 ft | 292 kts | 265° |
| 2026-04-29 02:34 | -13.42331 | -72.50311 | 21458 ft | 293 kts | 263° |
| 2026-04-29 02:34 | -13.42511 | -72.52395 | 21408 ft | 294 kts | 264° |
| 2026-04-29 02:34 | -13.42685 | -72.54504 | 21334 ft | 293 kts | 264° |
| 2026-04-29 02:35 | -13.42876 | -72.56578 | 21265 ft | 293 kts | 264° |
| 2026-04-29 02:35 | -13.42986 | -72.58639 | 21172 ft | 293 kts | 267° |
| 2026-04-29 02:35 | -13.43042 | -72.60729 | 21091 ft | 292 kts | 267° |
| 2026-04-29 02:35 | -13.43092 | -72.62824 | 21005 ft | 291 kts | 268° |
| 2026-04-29 02:36 | -13.43097 | -72.64900 | 21000 ft | 290 kts | 269° |
| 2026-04-29 02:36 | -13.43103 | -72.66945 | 21100 ft | 290 kts | 267° |
| 2026-04-29 02:36 | -13.43170 | -72.69022 | 21303 ft | 292 kts | 267° |
| 2026-04-29 02:36 | -13.43211 | -72.71124 | 21538 ft | 295 kts | 268° |
| 2026-04-29 02:37 | -13.43206 | -72.73222 | 21440 ft | 295 kts | 269° |
| 2026-04-29 02:37 | -13.43267 | -72.75309 | 21276 ft | 293 kts | 263° |
| 2026-04-29 02:37 | -13.43553 | -72.77382 | 21168 ft | 290 kts | 259° |
| 2026-04-29 02:37 | -13.44014 | -72.79387 | 21295 ft | 290 kts | 244° |
| 2026-04-29 02:38 | -13.45230 | -72.81008 | 21417 ft | 288 kts | 211° |
| 2026-04-29 02:38 | -13.47098 | -72.81654 | 21271 ft | 286 kts | 177° |
| 2026-04-29 02:38 | -13.48956 | -72.81079 | 21045 ft | 280 kts | 141° |
| 2026-04-29 02:38 | -13.50105 | -72.79504 | 20996 ft | 282 kts | 109° |
| 2026-04-29 02:39 | -13.50609 | -72.77558 | 21130 ft | 284 kts | 103° |
| 2026-04-29 02:39 | -13.50990 | -72.75562 | 21264 ft | 285 kts | 100° |
| 2026-04-29 02:39 | -13.51264 | -72.73525 | 21404 ft | 286 kts | 97° |
| 2026-04-29 02:39 | -13.51426 | -72.71489 | 21546 ft | 287 kts | 94° |
| 2026-04-29 02:40 | -13.51480 | -72.69450 | 21694 ft | 288 kts | 93° |
| 2026-04-29 02:40 | -13.51782 | -72.67406 | 21748 ft | 287 kts | 111° |
| 2026-04-29 02:40 | -13.52562 | -72.65540 | 21819 ft | 287 kts | 115° |
| 2026-04-29 02:40 | -13.53237 | -72.63601 | 21880 ft | 290 kts | 108° |
| 2026-04-29 02:41 | -13.54016 | -72.61699 | 21868 ft | 288 kts | 116° |
| 2026-04-29 02:41 | -13.54714 | -72.59760 | 21923 ft | 289 kts | 104° |
| 2026-04-29 02:41 | -13.55126 | -72.57730 | 21999 ft | 289 kts | 102° |
| 2026-04-29 02:41 | -13.55518 | -72.55723 | 22029 ft | 290 kts | 102° |
| 2026-04-29 02:42 | -13.55927 | -72.53693 | 21987 ft | 289 kts | 102° |
| 2026-04-29 02:42 | -13.56313 | -72.51662 | 21874 ft | 289 kts | 102° |
| 2026-04-29 02:42 | -13.56736 | -72.49670 | 21593 ft | 289 kts | 103° |
| 2026-04-29 02:42 | -13.57164 | -72.47633 | 21272 ft | 287 kts | 103° |
| 2026-04-29 02:43 | -13.57563 | -72.45656 | 21114 ft | 282 kts | 103° |
| 2026-04-29 02:43 | -13.57984 | -72.43684 | 21082 ft | 284 kts | 104° |
| 2026-04-29 02:43 | -13.58400 | -72.41695 | 21060 ft | 284 kts | 102° |
| 2026-04-29 02:43 | -13.58764 | -72.39723 | 21181 ft | 285 kts | 102° |
| 2026-04-29 02:44 | -13.59199 | -72.37728 | 21323 ft | 287 kts | 103° |
| 2026-04-29 02:44 | -13.59605 | -72.35716 | 21494 ft | 288 kts | 104° |
| 2026-04-29 02:44 | -13.60067 | -72.33691 | 21566 ft | 290 kts | 104° |
| 2026-04-29 02:44 | -13.60494 | -72.31697 | 21567 ft | 290 kts | 102° |
| 2026-04-29 02:45 | -13.60887 | -72.29668 | 21547 ft | 290 kts | 102° |
| 2026-04-29 02:45 | -13.61261 | -72.27621 | 21531 ft | 291 kts | 101° |
| 2026-04-29 02:45 | -13.61694 | -72.25594 | 21476 ft | 289 kts | 108° |
| 2026-04-29 02:45 | -13.62353 | -72.23640 | 21358 ft | 289 kts | 111° |
| 2026-04-29 02:46 | -13.62989 | -72.21713 | 21196 ft | 284 kts | 107° |
| 2026-04-29 02:46 | -13.63467 | -72.19763 | 20914 ft | 282 kts | 103° |
| 2026-04-29 02:46 | -13.63882 | -72.17793 | 20589 ft | 281 kts | 102° |
| 2026-04-29 02:46 | -13.64285 | -72.15855 | 20269 ft | 280 kts | 103° |
| 2026-04-29 02:47 | -13.64792 | -72.13935 | 19959 ft | 278 kts | 106° |
| 2026-04-29 02:47 | -13.65294 | -72.12023 | 19689 ft | 274 kts | 105° |
| 2026-04-29 02:47 | -13.65720 | -72.10140 | 19426 ft | 270 kts | 102° |
| 2026-04-29 02:47 | -13.66140 | -72.08258 | 19180 ft | 266 kts | 105° |
| 2026-04-29 02:48 | -13.66599 | -72.06450 | 18967 ft | 260 kts | 105° |
| 2026-04-29 02:48 | -13.67068 | -72.04662 | 18813 ft | 251 kts | 106° |
| 2026-04-29 02:48 | -13.67516 | -72.02951 | 18686 ft | 257 kts | 104° |
| 2026-04-29 02:48 | -13.67943 | -72.01115 | 18651 ft | 268 kts | 104° |
| 2026-04-29 02:49 | -13.68529 | -71.99287 | 18632 ft | 270 kts | 114° |
| 2026-04-29 02:49 | -13.69380 | -71.97570 | 18633 ft | 271 kts | 121° |
| 2026-04-29 02:49 | -13.70356 | -71.95889 | 18518 ft | 271 kts | 121° |
| 2026-04-29 02:49 | -13.71277 | -71.94235 | 18318 ft | 269 kts | 119° |
| 2026-04-29 02:50 | -13.72157 | -71.92535 | 18118 ft | 267 kts | 118° |
| 2026-04-29 02:50 | -13.73048 | -71.90852 | 17837 ft | 267 kts | 121° |
| 2026-04-29 02:50 | -13.74004 | -71.89213 | 17527 ft | 267 kts | 122° |
| 2026-04-29 02:50 | -13.75000 | -71.87584 | 17186 ft | 269 kts | 123° |
| 2026-04-29 02:51 | -13.75960 | -71.85954 | 16855 ft | 270 kts | 117° |
| 2026-04-29 02:51 | -13.76775 | -71.84197 | 16554 ft | 269 kts | 112° |
| 2026-04-29 02:51 | -13.77411 | -71.82429 | 16349 ft | 263 kts | 105° |
| 2026-04-29 02:51 | -13.77754 | -71.80608 | 16218 ft | 255 kts | 95° |
| 2026-04-29 02:52 | -13.77662 | -71.78833 | 16155 ft | 243 kts | 75° |
| 2026-04-29 02:52 | -13.77062 | -71.77243 | 16154 ft | 236 kts | 62° |
| 2026-04-29 02:52 | -13.76224 | -71.75870 | 16332 ft | 219 kts | 57° |
| 2026-04-29 02:52 | -13.75370 | -71.74667 | 16511 ft | 193 kts | 53° |
| 2026-04-29 02:53 | -13.74533 | -71.73650 | 16461 ft | 185 kts | 50° |
| 2026-04-29 02:53 | -13.73649 | -71.72693 | 16377 ft | 183 kts | 36° |
| 2026-04-29 02:53 | -13.72497 | -71.72128 | 16266 ft | 185 kts | 24° |
| 2026-04-29 02:53 | -13.71307 | -71.71603 | 16003 ft | 183 kts | 27° |
| 2026-04-29 02:54 | -13.70160 | -71.71053 | 15645 ft | 184 kts | 26° |
| 2026-04-29 02:54 | -13.68977 | -71.70524 | 15292 ft | 183 kts | 24° |
| 2026-04-29 02:54 | -13.67766 | -71.70104 | 14923 ft | 185 kts | 15° |
| 2026-04-29 02:54 | -13.66501 | -71.69958 | 14699 ft | 177 kts | 356° |
| 2026-04-29 02:55 | -13.65288 | -71.70181 | 14549 ft | 178 kts | 341° |
| 2026-04-29 02:55 | -13.64144 | -71.70653 | 14394 ft | 178 kts | 335° |
| 2026-04-29 02:55 | -13.63095 | -71.71333 | 14233 ft | 178 kts | 325° |
| 2026-04-29 02:55 | -13.62105 | -71.72118 | 14061 ft | 179 kts | 318° |
| 2026-04-29 02:56 | -13.61317 | -71.73090 | 13833 ft | 179 kts | 306° |
| 2026-04-29 02:56 | -13.60692 | -71.74184 | 13496 ft | 178 kts | 298° |
| 2026-04-29 02:56 | -13.60101 | -71.75297 | 13166 ft | 177 kts | 302° |
| 2026-04-29 02:56 | -13.59501 | -71.76386 | 12847 ft | 176 kts | 298° |
| 2026-04-29 02:57 | -13.59040 | -71.77557 | 12536 ft | 175 kts | 290° |
| 2026-04-29 02:57 | -13.58707 | -71.78753 | 12233 ft | 174 kts | 288° |
| 2026-04-29 02:57 | -13.58227 | -71.79879 | 12096 ft | 174 kts | 301° |
| 2026-04-29 02:57 | -13.57602 | -71.80945 | 12010 ft | 168 kts | 300° |
| 2026-04-29 02:58 | -13.57012 | -71.82050 | 12043 ft | 186 kts | 300° |
| 2026-04-29 02:58 | -13.56332 | -71.83235 | 12181 ft | 191 kts | 303° |
| 2026-04-29 02:58 | -13.55658 | -71.84336 | 12034 ft | 173 kts | 302° |
| 2026-04-29 02:58 | -13.55067 | -71.85371 | 11722 ft | 166 kts | 303° |
| 2026-04-29 02:59 | -13.54459 | -71.86494 | 11492 ft | 179 kts | 294° |
| 2026-04-29 02:59 | -13.54208 | -71.87690 | 11256 ft | 169 kts | 278° |
| 2026-04-29 02:59 | -13.54107 | -71.88856 | 10983 ft | 162 kts | 279° |
| 2026-04-29 02:59 | -13.53973 | -71.90077 | 11073 ft | 168 kts | 280° |
| 2026-04-29 03:00 | -13.53840 | -71.91180 | 10910 ft | 149 kts | 281° |
| 2026-04-29 03:00 | -13.53724 | -71.92282 | 10869 ft | 153 kts | 278° |
| 2026-04-29 03:00 | -13.53612 | -71.93316 | 10774 ft | 139 kts | 271° |
| 2026-04-29 03:00 | -13.53535 | -71.94136 | 10814 ft | 106 kts | 277° |
| 2026-04-29 03:01 | -13.53466 | -71.94805 | 10842 ft | 81 kts | 279° |
| 2026-04-29 03:01 | -13.53432 | -71.95252 | 10860 ft | 11 kts | 276° |
| 2026-04-29 03:01 | -13.53431 | -71.95255 | 10860 ft | 0 kts | 276° |
| 2026-04-29 03:02 | -13.55376 | -71.76165 | 14032 ft | 214 kts | 276° |
| 2026-04-29 03:02 | -13.55540 | -71.77784 | 13416 ft | 237 kts | 248° |
| 2026-04-29 03:03 | -13.56144 | -71.79393 | 12891 ft | 245 kts | 255° |
| 2026-04-29 03:03 | -13.56515 | -71.81117 | 12407 ft | 251 kts | 261° |
| 2026-04-29 03:03 | -13.56573 | -71.82903 | 11820 ft | 259 kts | 282° |
| 2026-04-29 03:03 | -13.55866 | -71.84619 | 11287 ft | 262 kts | 307° |
| 2026-04-29 03:04 | -13.54905 | -71.86124 | 11315 ft | 237 kts | 300° |
| 2026-04-29 03:04 | -13.54253 | -71.87568 | 11314 ft | 212 kts | 288° |
| 2026-04-29 03:04 | -13.54012 | -71.88994 | 11143 ft | 199 kts | 276° |
| 2026-04-29 03:04 | -13.53898 | -71.90385 | 10942 ft | 188 kts | 276° |
| 2026-04-29 03:05 | -13.53787 | -71.91661 | 10910 ft | 173 kts | 279° |
| 2026-04-29 03:05 | -13.53674 | -71.92857 | 10756 ft | 157 kts | 280° |
| 2026-04-29 03:05 | -13.53587 | -71.93695 | 10792 ft | 75 kts | 276° |
| 2026-04-29 03:05 | -13.53548 | -71.94079 | 10811 ft | 48 kts | 277° |
| 2026-04-29 03:06 | -13.53517 | -71.94396 | 10824 ft | 41 kts | 276° |
| 2026-04-29 03:06 | -13.53491 | -71.94666 | 10836 ft | 34 kts | 276° |
| 2026-04-29 03:06 | -13.53480 | -71.94865 | 10844 ft | 21 kts | 253° |
| 2026-04-29 03:06 | -13.53511 | -71.94917 | 10845 ft | 1 kts | 227° |
| 2026-04-29 03:07 | -13.53512 | -71.94919 | 10845 ft | 0 kts | 227° |
| 2026-04-29 03:07 | -13.53579 | -71.94938 | 10845 ft | 13 kts | 149° |
| 2026-04-29 03:07 | -13.53615 | -71.94850 | 10842 ft | 15 kts | 98° |
| 2026-04-29 03:07 | -13.53628 | -71.94729 | 10837 ft | 18 kts | 95° |
| 2026-04-29 03:08 | -13.53642 | -71.94587 | 10831 ft | 21 kts | 96° |
| 2026-04-29 03:08 | -13.53652 | -71.94481 | 10827 ft | 9 kts | 96° |
| 2026-04-29 03:08 | -13.53695 | -71.94453 | 10826 ft | 9 kts | 219° |
| 2026-04-29 03:08 | -13.53730 | -71.94425 | 10824 ft | 9 kts | 93° |
| 2026-04-29 03:09 | -13.53741 | -71.94397 | 10823 ft | 0 kts | 116° |